Time;durP1;ratioP1;P1;durP2;ratioP2;P2;SDS_P1;SDS_P2;PMS_P1;PMS_P2;Temp;Humidity;BMP_temperature;BMP_pressure;BME280_temperature;BME280_humidity;BME280_pressure;Samples;Min_cycle;Max_cycle;Signal;HPM_P1;HPM_P2
2022/10/25 00:00:28;;;;;;;1.77;1.05;;;15.70;83.50;;;;;;5104462;28;20036;-70
2022/10/25 00:02:54;;;;;;;2.20;0.70;;;15.70;83.50;;;;;;5093290;28;20027;-70
2022/10/25 00:05:20;;;;;;;1.23;1.05;;;15.70;83.50;;;;;;5112235;28;20474;-70
2022/10/25 00:07:45;;;;;;;0.52;0.40;;;15.70;83.60;;;;;;5098220;28;20162;-71
2022/10/25 00:10:11;;;;;;;2.75;1.15;;;15.70;83.70;;;;;;5094882;28;20505;-71
2022/10/25 00:12:44;;;;;;;1.30;0.73;;;15.70;83.70;;;;;;5096727;28;20093;-70
2022/10/25 00:15:12;;;;;;;0.98;0.77;;;15.70;83.70;;;;;;5112809;28;20482;-70
2022/10/25 00:17:38;;;;;;;1.13;0.80;;;15.70;83.80;;;;;;5100190;28;20089;-70
2022/10/25 00:20:04;;;;;;;1.60;0.80;;;15.70;84.10;;;;;;5108079;28;20027;-70
2022/10/25 00:22:29;;;;;;;1.77;1.10;;;15.60;84.20;;;;;;5100748;28;20028;-70
2022/10/25 00:24:55;;;;;;;4.30;0.88;;;15.70;84.30;;;;;;5105524;28;20084;-70
2022/10/25 00:27:21;;;;;;;0.73;0.60;;;15.60;84.20;;;;;;5092077;28;20055;-77
2022/10/25 00:29:46;;;;;;;1.38;0.77;;;15.70;84.20;;;;;;5106836;28;20032;-77
2022/10/25 00:32:12;;;;;;;3.90;1.23;;;15.70;84.20;;;;;;5101917;28;20036;-77
2022/10/25 00:34:41;;;;;;;1.55;0.80;;;15.70;84.10;;;;;;5103327;28;20051;-77
2022/10/25 00:37:06;;;;;;;1.55;0.93;;;15.70;84.10;;;;;;5106194;28;20028;-77
2022/10/25 00:39:32;;;;;;;1.05;0.80;;;15.70;84.10;;;;;;5101752;28;20402;-70
2022/10/25 00:41:59;;;;;;;1.45;0.70;;;15.70;84.10;;;;;;5103591;28;20035;-70
2022/10/25 00:44:39;;;;;;;1.80;0.70;;;15.70;84.00;;;;;;5099097;28;20031;-77
2022/10/25 00:47:42;;;;;;;0.68;0.57;;;15.70;84.00;;;;;;5097856;28;20395;-71
2022/10/25 00:50:31;;;;;;;0.60;0.60;;;15.70;83.90;;;;;;5092312;28;20108;-77
2022/10/25 00:53:03;;;;;;;1.60;1.00;;;15.80;84.00;;;;;;5106175;28;20027;-70
2022/10/25 00:55:29;;;;;;;2.10;1.40;;;15.70;84.00;;;;;;5103899;28;20027;-70
2022/10/25 00:58:09;;;;;;;1.10;0.85;;;15.70;84.20;;;;;;5105161;28;20032;-70
2022/10/25 01:00:35;;;;;;;3.85;1.10;;;15.60;84.20;;;;;;5091084;28;20130;-71
2022/10/25 01:03:01;;;;;;;2.92;0.90;;;15.60;84.40;;;;;;5089779;28;20107;-70
2022/10/25 01:05:27;;;;;;;1.25;1.15;;;15.60;84.30;;;;;;5096662;28;20406;-70
2022/10/25 01:07:53;;;;;;;1.42;0.85;;;15.70;84.30;;;;;;5100464;28;20070;-70
2022/10/25 01:10:19;;;;;;;1.60;1.20;;;15.70;84.20;;;;;;5099982;28;20160;-70
2022/10/25 01:12:46;;;;;;;1.23;1.00;;;15.70;84.10;;;;;;5103911;28;20024;-70
2022/10/25 01:15:12;;;;;;;2.00;1.52;;;15.70;84.30;;;;;;5090429;28;21351;-70
2022/10/25 01:18:01;;;;;;;19.98;1.33;;;15.70;84.20;;;;;;5104040;28;20019;-71
2022/10/25 01:20:45;;;;;;;1.08;0.77;;;15.70;84.10;;;;;;5097512;28;20031;-70
2022/10/25 01:23:26;;;;;;;1.95;0.95;;;15.70;84.10;;;;;;5103801;28;20093;-70
2022/10/25 01:26:07;;;;;;;5.28;1.00;;;15.70;84.00;;;;;;5089420;28;20027;-70
2022/10/25 01:28:57;;;;;;;0.90;0.90;;;15.80;83.90;;;;;;5092503;28;20020;-70
2022/10/25 01:31:43;;;;;;;0.82;0.82;;;15.80;83.90;;;;;;5103613;28;20119;-70
2022/10/25 01:34:16;;;;;;;2.08;1.15;;;15.80;83.90;;;;;;5082536;28;20032;-70
2022/10/25 01:37:10;;;;;;;1.33;1.15;;;15.80;84.10;;;;;;5106630;28;20168;-70
2022/10/25 01:39:56;;;;;;;3.53;1.00;;;15.80;84.10;;;;;;5096449;28;20039;-70
2022/10/25 01:42:45;;;;;;;1.13;0.90;;;15.80;84.10;;;;;;5091162;28;20077;-70
2022/10/25 01:45:28;;;;;;;2.35;1.05;;;15.80;84.20;;;;;;5093123;28;20039;-70
2022/10/25 01:48:15;;;;;;;1.25;0.93;;;15.80;84.10;;;;;;5103658;28;20436;-78
2022/10/25 01:50:44;;;;;;;4.65;1.08;;;15.80;84.10;;;;;;5102306;28;20036;-78
2022/10/25 01:53:11;;;;;;;2.55;1.15;;;15.80;84.20;;;;;;5110982;28;20467;-78
2022/10/25 01:55:48;;;;;;;4.45;0.98;;;15.80;84.10;;;;;;5095706;28;20435;-78
2022/10/25 01:58:25;;;;;;;1.38;0.68;;;15.90;84.60;;;;;;5080872;28;20063;-77
2022/10/25 02:01:22;;;;;;;1.40;1.17;;;15.90;84.10;;;;;;5091260;28;20024;-70
2022/10/25 02:04:07;;;;;;;9.25;2.10;;;15.90;84.20;;;;;;5062674;28;20081;-70
2022/10/25 02:06:56;;;;;;;2.15;1.83;;;15.90;84.10;;;;;;5089909;28;20387;-71
2022/10/25 02:09:29;;;;;;;0.70;0.70;;;15.90;84.10;;;;;;5089300;28;20032;-71
2022/10/25 02:11:57;;;;;;;0.90;0.80;;;15.90;84.10;;;;;;5080544;28;20073;-71
2022/10/25 02:14:25;;;;;;;2.13;1.02;;;15.90;84.00;;;;;;5103652;28;20015;-71
2022/10/25 02:17:06;;;;;;;4.75;0.93;;;15.90;84.00;;;;;;5088565;28;20024;-72
2022/10/25 02:19:40;;;;;;;1.85;1.23;;;15.90;83.90;;;;;;5084885;28;20457;-71
2022/10/25 02:22:08;;;;;;;4.75;1.17;;;16.00;83.80;;;;;;5097672;28;20038;-71
2022/10/25 02:24:35;;;;;;;1.10;1.00;;;15.90;83.80;;;;;;5099260;28;20020;-71
2022/10/25 02:27:03;;;;;;;3.45;1.05;;;16.00;83.90;;;;;;5082955;28;20425;-71
2022/10/25 02:29:31;;;;;;;5.07;1.50;;;15.90;83.90;;;;;;5093759;28;20027;-70
2022/10/25 02:31:58;;;;;;;0.98;0.68;;;15.90;83.80;;;;;;5105914;28;20374;-70
2022/10/25 02:34:24;;;;;;;2.58;1.45;;;15.90;83.90;;;;;;5103524;28;20030;-70
2022/10/25 02:36:52;;;;;;;2.60;1.30;;;15.90;83.90;;;;;;5105255;28;20440;-79
2022/10/25 02:39:19;;;;;;;4.03;1.25;;;16.00;83.90;;;;;;5101413;28;20031;-71
2022/10/25 02:41:44;;;;;;;1.35;0.80;;;15.90;83.80;;;;;;5109406;28;20441;-70
2022/10/25 02:44:10;;;;;;;6.63;1.35;;;16.00;83.90;;;;;;5100121;28;20053;-78
2022/10/25 02:46:36;;;;;;;3.33;0.80;;;15.90;83.90;;;;;;5099076;28;20458;-70
2022/10/25 02:49:01;;;;;;;1.02;0.70;;;15.90;84.10;;;;;;5101379;28;20434;-70
2022/10/25 02:51:27;;;;;;;3.15;1.02;;;15.90;84.20;;;;;;5102589;28;20116;-78
2022/10/25 02:53:53;;;;;;;3.63;1.63;;;15.90;84.20;;;;;;5100888;28;20584;-78
2022/10/25 02:56:20;;;;;;;2.35;1.25;;;15.90;84.20;;;;;;5093681;28;20032;-78
2022/10/25 02:58:47;;;;;;;2.30;1.30;;;15.90;84.30;;;;;;5097332;28;20063;-78
2022/10/25 03:01:14;;;;;;;1.15;1.05;;;15.90;84.50;;;;;;5086831;28;20025;-71
2022/10/25 03:03:40;;;;;;;1.05;0.65;;;15.80;84.50;;;;;;5081416;28;20067;-70
2022/10/25 03:06:09;;;;;;;4.38;1.13;;;15.80;84.50;;;;;;5076103;28;20064;-70
2022/10/25 03:08:35;;;;;;;1.75;1.02;;;15.80;84.50;;;;;;5081460;28;20074;-71
2022/10/25 03:11:01;;;;;;;2.15;0.70;;;15.80;84.40;;;;;;5085811;28;20032;-71
2022/10/25 03:13:27;;;;;;;2.20;1.13;;;15.90;84.40;;;;;;5085438;28;20032;-71
2022/10/25 03:15:53;;;;;;;1.42;1.15;;;15.90;84.20;;;;;;5086479;28;20034;-71
2022/10/25 03:18:18;;;;;;;1.10;1.00;;;15.90;84.20;;;;;;5086491;28;20427;-78
2022/10/25 03:20:44;;;;;;;1.60;0.88;;;15.90;84.10;;;;;;5088013;28;20032;-78
2022/10/25 03:23:10;;;;;;;1.33;1.00;;;15.90;84.20;;;;;;5088525;28;20029;-78
2022/10/25 03:25:36;;;;;;;2.92;0.98;;;15.90;84.20;;;;;;5086581;28;20028;-78
2022/10/25 03:28:02;;;;;;;2.58;1.10;;;15.90;84.20;;;;;;5085657;28;20056;-71
2022/10/25 03:30:29;;;;;;;3.13;1.60;;;15.90;84.30;;;;;;5088738;28;20034;-70
2022/10/25 03:32:55;;;;;;;1.98;1.63;;;15.90;84.50;;;;;;5090126;28;20024;-70
2022/10/25 03:35:21;;;;;;;5.10;1.70;;;15.90;84.50;;;;;;5090069;28;20042;-71
2022/10/25 03:37:48;;;;;;;1.98;1.05;;;15.80;84.60;;;;;;5092352;28;20028;-71
2022/10/25 03:40:14;;;;;;;2.90;1.20;;;15.80;84.60;;;;;;5091916;28;20032;-71
2022/10/25 03:42:39;;;;;;;1.55;0.93;;;15.90;84.60;;;;;;5092818;28;20051;-78
2022/10/25 03:45:05;;;;;;;3.75;1.17;;;15.90;84.50;;;;;;5092164;28;20536;-78
2022/10/25 03:47:31;;;;;;;2.55;1.50;;;15.90;84.50;;;;;;5091243;28;20055;-79
2022/10/25 03:49:56;;;;;;;1.63;1.30;;;15.90;84.60;;;;;;5100037;28;20050;-78
2022/10/25 03:52:22;;;;;;;6.65;1.60;;;15.90;84.50;;;;;;5092522;28;20032;-78
2022/10/25 03:54:48;;;;;;;3.72;1.80;;;15.90;84.40;;;;;;5091175;28;20534;-79
2022/10/25 03:57:13;;;;;;;2.40;1.95;;;15.90;84.90;;;;;;5084645;28;20032;-79
2022/10/25 03:59:39;;;;;;;3.58;1.98;;;15.90;84.40;;;;;;5103458;28;20028;-79
2022/10/25 04:02:05;;;;;;;4.07;1.50;;;15.90;84.50;;;;;;5095719;28;20047;-78
2022/10/25 04:04:30;;;;;;;2.30;1.30;;;15.90;84.40;;;;;;5092001;28;20020;-78
2022/10/25 04:06:56;;;;;;;3.33;1.27;;;15.90;84.30;;;;;;5091582;28;20020;-71
2022/10/25 04:09:22;;;;;;;1.85;1.58;;;15.90;84.30;;;;;;5092319;28;20394;-79
2022/10/25 04:11:47;;;;;;;3.15;1.38;;;15.90;84.20;;;;;;5093065;28;20028;-79
2022/10/25 04:14:13;;;;;;;2.58;1.80;;;15.90;84.20;;;;;;5090469;28;20107;-78
2022/10/25 04:16:39;;;;;;;4.22;1.20;;;15.90;84.20;;;;;;5092567;28;20035;-79
2022/10/25 04:19:05;;;;;;;1.33;1.08;;;15.90;84.30;;;;;;5091170;28;20020;-71
2022/10/25 04:21:30;;;;;;;2.08;1.48;;;15.90;84.20;;;;;;5089988;28;20028;-71
2022/10/25 04:23:56;;;;;;;4.28;1.48;;;15.90;84.10;;;;;;5088563;28;20036;-71
2022/10/25 04:26:21;;;;;;;4.13;1.10;;;15.90;84.10;;;;;;5092652;28;20051;-71
2022/10/25 04:28:52;;;;;;;2.28;1.70;;;15.90;84.10;;;;;;5089696;28;20032;-71
2022/10/25 04:31:19;;;;;;;2.20;1.38;;;15.90;84.70;;;;;;5091403;28;20056;-71
2022/10/25 04:33:50;;;;;;;1.95;1.50;;;15.90;84.10;;;;;;5090726;28;20103;-71
2022/10/25 04:36:16;;;;;;;3.00;1.70;;;15.90;84.10;;;;;;5092589;28;20028;-71
2022/10/25 04:38:42;;;;;;;3.05;1.30;;;15.90;84.10;;;;;;5091846;28;20019;-71
2022/10/25 04:41:08;;;;;;;2.10;1.70;;;15.90;84.10;;;;;;5091308;28;20044;-71
2022/10/25 04:43:35;;;;;;;2.03;1.30;;;15.90;84.10;;;;;;5090135;28;20031;-79
2022/10/25 04:46:01;;;;;;;2.30;1.75;;;15.90;84.00;;;;;;5079454;28;20103;-79
2022/10/25 04:48:27;;;;;;;2.97;1.40;;;15.90;84.00;;;;;;5091036;28;20052;-79
2022/10/25 04:50:53;;;;;;;2.90;1.10;;;15.90;84.00;;;;;;5103579;28;20498;-79
2022/10/25 04:53:18;;;;;;;2.40;1.48;;;15.90;84.00;;;;;;5081290;28;20072;-71
2022/10/25 04:55:53;;;;;;;4.93;1.65;;;15.90;84.00;;;;;;5108089;28;20047;-71
2022/10/25 04:58:19;;;;;;;3.80;1.42;;;15.90;84.10;;;;;;5090769;27;20040;-71
2022/10/25 05:00:46;;;;;;;2.42;1.35;;;15.80;84.10;;;;;;5079561;28;20055;-70
2022/10/25 05:03:11;;;;;;;4.47;1.60;;;15.80;84.10;;;;;;5105675;28;20056;-78
2022/10/25 05:05:37;;;;;;;1.90;1.35;;;15.80;84.20;;;;;;5095965;28;20059;-79
2022/10/25 05:08:03;;;;;;;1.45;1.23;;;15.80;84.20;;;;;;5100428;28;20522;-78
2022/10/25 05:10:28;;;;;;;4.60;1.20;;;15.80;84.10;;;;;;5098029;28;20028;-78
2022/10/25 05:12:54;;;;;;;1.80;1.20;;;15.80;84.10;;;;;;5111545;28;20071;-78
2022/10/25 05:15:20;;;;;;;2.83;1.55;;;15.80;84.30;;;;;;5099123;28;20475;-78
2022/10/25 05:17:46;;;;;;;3.08;1.65;;;15.90;84.00;;;;;;5105506;28;20024;-71
2022/10/25 05:20:11;;;;;;;1.10;0.98;;;15.90;83.90;;;;;;5101322;28;20023;-71
2022/10/25 05:22:37;;;;;;;2.05;1.27;;;15.90;83.90;;;;;;5105555;28;20426;-79
2022/10/25 05:25:03;;;;;;;1.45;1.20;;;15.90;83.90;;;;;;5099605;28;20199;-70
2022/10/25 05:27:29;;;;;;;3.45;1.23;;;15.90;83.90;;;;;;5108424;28;20073;-78
2022/10/25 05:29:54;;;;;;;4.03;1.20;;;15.90;83.80;;;;;;5098268;28;20024;-79
2022/10/25 05:32:20;;;;;;;5.70;1.67;;;15.90;83.80;;;;;;5111429;28;20032;-78
2022/10/25 05:34:46;;;;;;;1.75;1.35;;;15.90;83.80;;;;;;5103250;28;20024;-71
2022/10/25 05:37:11;;;;;;;1.63;1.33;;;15.80;83.80;;;;;;5095369;28;20521;-78
2022/10/25 05:39:37;;;;;;;2.10;1.27;;;15.80;83.90;;;;;;5091695;28;20462;-71
2022/10/25 05:42:05;;;;;;;2.03;1.00;;;15.80;83.90;;;;;;5090135;28;20038;-71
2022/10/25 05:44:31;;;;;;;4.82;1.50;;;15.80;83.90;;;;;;5094787;28;20371;-78
2022/10/25 05:46:56;;;;;;;2.25;1.25;;;15.80;83.90;;;;;;5106830;28;20028;-78
2022/10/25 05:49:22;;;;;;;7.50;1.23;;;15.80;84.00;;;;;;5095582;28;20136;-78
2022/10/25 05:51:49;;;;;;;1.58;1.23;;;15.80;84.10;;;;;;5093480;28;20457;-71
2022/10/25 05:54:15;;;;;;;3.97;1.27;;;15.70;84.10;;;;;;5097672;28;20024;-72
2022/10/25 05:56:42;;;;;;;3.40;1.30;;;15.70;84.10;;;;;;5070209;28;20024;-71
2022/10/25 05:59:13;;;;;;;2.67;0.98;;;15.70;84.10;;;;;;5091522;28;20514;-71
2022/10/25 06:01:43;;;;;;;2.22;1.35;;;15.70;84.10;;;;;;5095013;28;20393;-70
2022/10/25 06:04:10;;;;;;;1.13;0.90;;;15.70;84.10;;;;;;5096050;28;20036;-70
2022/10/25 06:06:37;;;;;;;1.48;1.38;;;15.70;84.20;;;;;;5090922;28;20056;-71
2022/10/25 06:09:04;;;;;;;2.22;1.50;;;15.60;84.10;;;;;;5099491;28;20106;-71
2022/10/25 06:11:30;;;;;;;2.55;1.83;;;15.60;84.20;;;;;;5093475;28;20077;-71
2022/10/25 06:13:56;;;;;;;1.65;1.20;;;15.60;84.30;;;;;;5098946;28;20032;-70
2022/10/25 06:16:22;;;;;;;1.88;1.40;;;15.60;84.30;;;;;;5090389;28;20024;-71
2022/10/25 06:18:48;;;;;;;1.48;0.95;;;15.50;84.30;;;;;;5083448;28;20032;-71
2022/10/25 06:21:17;;;;;;;1.85;1.20;;;15.50;84.40;;;;;;5089274;28;20081;-71
2022/10/25 06:23:43;;;;;;;2.30;1.40;;;15.50;84.40;;;;;;5100739;28;20024;-71
2022/10/25 06:26:12;;;;;;;8.55;1.67;;;15.50;84.40;;;;;;5100097;28;20043;-71
2022/10/25 06:28:38;;;;;;;2.25;1.50;;;15.50;84.50;;;;;;5093263;28;20082;-71
2022/10/25 06:31:12;;;;;;;1.48;1.38;;;15.50;84.50;;;;;;5088676;28;20023;-71
2022/10/25 06:33:38;;;;;;;1.98;1.73;;;15.50;84.40;;;;;;5100461;28;20510;-71
2022/10/25 06:36:06;;;;;;;1.45;1.10;;;15.50;84.40;;;;;;5090032;28;20515;-71
2022/10/25 06:38:32;;;;;;;1.67;0.75;;;15.50;84.40;;;;;;5103246;28;20028;-71
2022/10/25 06:41:04;;;;;;;2.83;1.40;;;15.50;84.40;;;;;;5098462;28;20029;-71
2022/10/25 06:43:31;;;;;;;1.23;0.95;;;15.50;84.40;;;;;;5100357;28;20043;-71
2022/10/25 06:45:57;;;;;;;5.28;1.83;;;15.40;84.50;;;;;;5100912;28;20101;-71
2022/10/25 06:48:23;;;;;;;7.43;1.85;;;15.40;84.60;;;;;;5095175;28;20483;-71
2022/10/25 06:51:03;;;;;;;1.40;0.85;;;15.40;84.60;;;;;;5103803;28;20463;-70
2022/10/25 06:53:29;;;;;;;4.13;1.50;;;15.50;84.50;;;;;;5097565;28;20099;-71
2022/10/25 06:56:03;;;;;;;7.63;2.53;;;15.40;84.50;;;;;;5099395;28;20107;-71
2022/10/25 06:58:30;;;;;;;2.10;1.17;;;15.40;84.50;;;;;;5088439;28;20081;-78
2022/10/25 07:01:00;;;;;;;1.45;1.20;;;15.40;85.10;;;;;;5101180;28;20151;-78
2022/10/25 07:03:29;;;;;;;4.95;1.73;;;15.40;84.60;;;;;;5090311;28;20036;-78
2022/10/25 07:05:58;;;;;;;7.07;1.33;;;15.40;84.60;;;;;;5088847;28;20012;-78
2022/10/25 07:08:24;;;;;;;2.47;1.73;;;15.40;84.60;;;;;;5107629;27;20100;-71
2022/10/25 07:10:56;;;;;;;1.65;1.50;;;15.40;84.60;;;;;;5090921;28;20115;-79
2022/10/25 07:13:22;;;;;;;3.83;1.63;;;15.40;84.60;;;;;;5087151;28;20027;-79
2022/10/25 07:15:48;;;;;;;4.10;1.33;;;15.40;84.60;;;;;;5084618;28;20020;-72
2022/10/25 07:18:14;;;;;;;1.20;1.10;;;15.40;84.60;;;;;;5092950;28;20501;-72
2022/10/25 07:20:39;;;;;;;1.55;1.05;;;15.40;84.60;;;;;;5090460;28;20032;-71
2022/10/25 07:23:05;;;;;;;2.85;1.80;;;15.40;84.60;;;;;;5096442;28;20111;-72
2022/10/25 07:25:31;;;;;;;6.38;1.42;;;15.50;84.50;;;;;;5099864;28;20391;-72
2022/10/25 07:27:57;;;;;;;3.47;1.70;;;15.50;84.30;;;;;;5095113;28;20028;-72
2022/10/25 07:30:22;;;;;;;5.18;1.75;;;15.50;84.20;;;;;;5092577;28;20048;-72
2022/10/25 07:32:48;;;;;;;1.33;1.20;;;15.60;84.20;;;;;;5089319;28;20043;-72
2022/10/25 07:35:13;;;;;;;1.55;1.42;;;15.60;84.20;;;;;;5092060;28;20031;-72
2022/10/25 07:37:39;;;;;;;2.42;1.55;;;15.60;84.20;;;;;;5090309;28;20382;-71
2022/10/25 07:40:05;;;;;;;2.20;1.63;;;15.60;84.10;;;;;;5088892;28;20028;-71
2022/10/25 07:42:31;;;;;;;2.13;1.42;;;15.60;84.00;;;;;;5087880;28;20483;-72
2022/10/25 07:44:57;;;;;;;2.13;1.50;;;15.70;84.10;;;;;;5082037;28;20017;-72
2022/10/25 07:47:22;;;;;;;1.90;1.15;;;15.70;84.50;;;;;;5093812;28;20429;-71
2022/10/25 07:49:48;;;;;;;7.85;1.52;;;15.70;83.90;;;;;;5092961;28;20078;-70
2022/10/25 07:52:13;;;;;;;3.47;0.98;;;15.70;83.70;;;;;;5091176;28;20036;-69
2022/10/25 07:54:39;;;;;;;1.88;1.50;;;15.70;83.80;;;;;;5099969;28;20032;-69
2022/10/25 07:57:05;;;;;;;1.60;1.20;;;15.70;83.70;;;;;;5075238;28;20024;-68
2022/10/25 07:59:31;;;;;;;1.83;1.40;;;15.80;83.70;;;;;;5087756;28;20047;-74
2022/10/25 08:01:57;;;;;;;2.13;1.55;;;15.80;83.70;;;;;;5079977;28;20059;-75
2022/10/25 08:04:22;;;;;;;2.72;1.55;;;15.80;83.70;;;;;;5088396;28;20071;-75
2022/10/25 08:06:49;;;;;;;1.67;1.15;;;15.80;83.60;;;;;;5088209;28;20093;-74
2022/10/25 08:09:14;;;;;;;4.25;1.50;;;15.80;83.60;;;;;;5091827;28;20045;-75
2022/10/25 08:11:40;;;;;;;4.15;1.92;;;15.90;83.50;;;;;;5094572;28;20028;-73
2022/10/25 08:14:06;;;;;;;3.38;1.60;;;15.80;83.30;;;;;;5091051;28;20031;-73
2022/10/25 08:16:31;;;;;;;2.38;1.40;;;15.90;83.40;;;;;;5070486;28;20016;-75
2022/10/25 08:18:57;;;;;;;8.88;1.30;;;15.90;83.20;;;;;;5086148;28;20159;-75
2022/10/25 08:21:22;;;;;;;3.50;1.40;;;15.90;83.30;;;;;;5088511;28;20113;-75
2022/10/25 08:23:49;;;;;;;1.85;1.60;;;15.90;83.30;;;;;;5091392;28;20432;-68
2022/10/25 08:26:14;;;;;;;3.10;1.55;;;15.90;83.20;;;;;;5091010;28;20038;-67
2022/10/25 08:28:40;;;;;;;2.47;1.50;;;15.90;83.00;;;;;;5090023;28;20158;-69
2022/10/25 08:31:06;;;;;;;2.20;1.63;;;15.90;83.10;;;;;;5088508;28;20074;-68
2022/10/25 08:33:32;;;;;;;2.83;1.85;;;15.90;83.10;;;;;;5086212;28;20027;-68
2022/10/25 08:36:01;;;;;;;2.53;1.90;;;15.90;83.10;;;;;;5087805;28;20062;-69
2022/10/25 08:38:27;;;;;;;4.78;1.95;;;16.00;83.10;;;;;;5093334;28;20491;-69
2022/10/25 08:41:04;;;;;;;4.30;1.80;;;16.00;83.00;;;;;;5092389;28;20035;-68
2022/10/25 08:43:36;;;;;;;2.33;1.40;;;16.20;82.70;;;;;;5085573;28;20088;-75
2022/10/25 08:46:12;;;;;;;9.18;2.00;;;16.30;82.40;;;;;;5084016;28;20028;-75
2022/10/25 08:48:50;;;;;;;2.10;1.33;;;16.50;81.90;;;;;;5088181;28;20092;-74
2022/10/25 08:51:43;;;;;;;2.90;1.88;;;16.60;81.70;;;;;;5103427;28;20075;-76
2022/10/25 08:54:25;;;;;;;2.60;2.17;;;16.70;81.10;;;;;;5084818;28;20550;-75
2022/10/25 08:57:12;;;;;;;4.68;2.13;;;16.60;81.20;;;;;;5091732;28;20016;-75
2022/10/25 08:59:41;;;;;;;3.58;2.00;;;16.40;81.40;;;;;;5101673;28;20179;-75
2022/10/25 09:02:21;;;;;;;3.97;2.50;;;16.40;81.70;;;;;;5097280;28;20384;-75
2022/10/25 09:04:47;;;;;;;5.50;2.20;;;16.40;81.40;;;;;;5091967;28;20055;-75
2022/10/25 09:07:39;;;;;;;2.72;2.03;;;16.30;81.60;;;;;;5098343;28;20052;-75
2022/10/25 09:10:27;;;;;;;4.93;2.38;;;16.30;81.60;;;;;;5088729;28;20393;-74
2022/10/25 09:13:18;;;;;;;7.57;2.70;;;16.20;81.70;;;;;;5101033;28;20081;-75
2022/10/25 09:16:10;;;;;;;4.32;3.40;;;16.20;81.80;;;;;;5094679;28;20024;-68
2022/10/25 09:18:49;;;;;;;6.22;2.40;;;16.30;81.80;;;;;;5080552;28;20039;-69
2022/10/25 09:21:48;;;;;;;5.30;2.78;;;16.30;81.70;;;;;;5091954;28;20043;-75
2022/10/25 09:24:23;;;;;;;3.75;2.47;;;16.40;81.40;;;;;;5082846;28;20047;-75
2022/10/25 09:27:30;;;;;;;2.95;2.20;;;16.30;81.60;;;;;;5086197;28;20020;-69
2022/10/25 09:30:01;;;;;;;7.53;3.35;;;16.40;81.30;;;;;;5081802;28;20036;-68
2022/10/25 09:32:41;;;;;;;5.65;3.17;;;16.40;81.40;;;;;;5086489;28;20031;-68
2022/10/25 09:35:33;;;;;;;4.38;2.13;;;16.40;81.40;;;;;;5086429;28;20111;-69
2022/10/25 09:38:00;;;;;;;4.38;2.53;;;16.50;81.10;;;;;;5076253;28;20020;-68
2022/10/25 09:40:35;;;;;;;3.53;2.35;;;16.60;80.90;;;;;;5095477;28;20031;-69
2022/10/25 09:43:13;;;;;;;3.40;2.47;;;16.60;80.90;;;;;;5078768;28;20013;-69
2022/10/25 09:45:47;;;;;;;2.33;1.88;;;16.60;80.70;;;;;;5095383;28;20039;-75
2022/10/25 09:48:36;;;;;;;4.18;3.08;;;16.60;80.80;;;;;;5090713;28;20028;-75
2022/10/25 09:51:16;;;;;;;2.85;2.03;;;16.70;80.60;;;;;;5100691;28;20532;-68
2022/10/25 09:53:45;;;;;;;4.32;2.33;;;16.70;80.50;;;;;;5088617;28;20032;-69
2022/10/25 09:56:11;;;;;;;2.63;1.73;;;16.70;80.80;;;;;;5085767;28;20386;-75
2022/10/25 09:58:43;;;;;;;2.40;2.17;;;16.90;80.70;;;;;;5067749;28;20029;-68
2022/10/25 10:01:28;;;;;;;5.43;2.42;;;17.10;80.20;;;;;;5085868;28;20038;-69
2022/10/25 10:04:02;;;;;;;3.75;2.20;;;17.50;80.30;;;;;;5088571;28;20063;-75
2022/10/25 10:06:38;;;;;;;7.95;2.30;;;17.60;78.70;;;;;;5090977;28;20536;-75
2022/10/25 10:09:11;;;;;;;4.55;2.72;;;17.70;78.50;;;;;;5102170;28;20020;-69
2022/10/25 10:11:38;;;;;;;2.65;2.00;;;17.70;78.00;;;;;;5090466;28;20020;-69
2022/10/25 10:14:15;;;;;;;5.25;2.28;;;17.70;78.20;;;;;;5088922;28;20031;-68
2022/10/25 10:16:50;;;;;;;6.53;2.17;;;17.70;77.90;;;;;;5088133;28;20498;-69
2022/10/25 10:19:19;;;;;;;6.20;2.25;;;17.70;78.00;;;;;;5088681;28;20016;-69
2022/10/25 10:21:49;;;;;;;4.15;1.83;;;17.60;77.70;;;;;;5099474;28;20052;-75
2022/10/25 10:24:29;;;;;;;4.47;1.30;;;17.60;78.10;;;;;;5090255;28;20028;-69
2022/10/25 10:27:00;;;;;;;6.90;2.20;;;17.50;78.10;;;;;;5090343;28;20038;-69
2022/10/25 10:29:37;;;;;;;4.43;1.80;;;17.50;78.40;;;;;;5089753;28;20492;-69
2022/10/25 10:32:19;;;;;;;3.45;2.28;;;17.70;78.10;;;;;;5089671;28;20043;-69
2022/10/25 10:34:51;;;;;;;3.25;2.30;;;17.70;77.80;;;;;;5088330;28;20020;-75
2022/10/25 10:37:20;;;;;;;;;;;17.60;77.70;;;;;;5096747;28;20382;-75
2022/10/25 10:40:07;;;;;;;4.20;2.92;;;17.50;77.90;;;;;;5092230;28;19911;-75
2022/10/25 10:42:37;;;;;;;4.53;1.92;;;17.40;78.00;;;;;;5089131;28;20039;-75
2022/10/25 10:45:11;;;;;;;2.38;1.88;;;17.40;78.20;;;;;;5083693;28;20419;-75
2022/10/25 10:47:48;;;;;;;3.42;2.40;;;17.40;78.20;;;;;;5082975;28;20032;-75
2022/10/25 10:50:23;;;;;;;5.15;1.98;;;17.40;77.90;;;;;;5087325;28;20438;-75
2022/10/25 10:53:02;;;;;;;4.65;2.78;;;17.50;77.80;;;;;;5101127;28;20047;-69
2022/10/25 10:55:45;;;;;;;7.90;2.13;;;17.60;77.60;;;;;;5088863;28;20028;-67
2022/10/25 10:58:13;;;;;;;;;;;17.80;77.40;;;;;;5102882;28;20102;-67
2022/10/25 11:00:46;;;;;;;2.25;1.65;;;18.00;77.00;;;;;;5089522;28;19915;-67
2022/10/25 11:03:40;;;;;;;3.25;2.08;;;18.20;76.80;;;;;;5101399;28;20040;-67
2022/10/25 11:06:12;;;;;;;3.90;2.28;;;18.30;75.80;;;;;;5089540;28;20020;-68
2022/10/25 11:08:38;;;;;;;8.05;2.22;;;18.30;75.70;;;;;;5085587;28;20805;-67
2022/10/25 11:11:13;;;;;;;2.47;1.42;;;18.40;75.50;;;;;;5088191;28;20106;-74
2022/10/25 11:13:40;;;;;;;14.35;2.00;;;18.40;74.80;;;;;;5088858;28;20024;-74
2022/10/25 11:16:11;;;;;;;2.40;1.83;;;18.40;74.80;;;;;;5088677;28;20018;-73
2022/10/25 11:19:03;;;;;;;3.78;1.98;;;18.30;74.70;;;;;;5074568;28;20063;-73
2022/10/25 11:22:06;;;;;;;2.13;1.92;;;18.20;74.80;;;;;;5094383;28;20023;-73
2022/10/25 11:24:46;;;;;;;3.78;2.10;;;18.10;74.90;;;;;;5082377;28;20028;-74
2022/10/25 11:27:46;;;;;;;4.93;1.60;;;18.00;75.20;;;;;;5079222;28;20052;-74
2022/10/25 11:30:14;;;;;;;4.03;2.35;;;17.90;75.30;;;;;;5083306;28;20177;-74
2022/10/25 11:32:51;;;;;;;4.90;1.63;;;18.00;75.70;;;;;;5085025;28;20016;-74
2022/10/25 11:35:43;;;;;;;2.67;1.27;;;18.20;75.20;;;;;;5082439;28;20099;-74
2022/10/25 11:38:20;;;;;;;3.28;1.98;;;18.20;75.00;;;;;;5082592;28;20824;-76
2022/10/25 11:41:19;;;;;;;2.63;1.27;;;18.10;74.80;;;;;;5085848;28;20035;-77
2022/10/25 11:44:11;;;;;;;1.63;1.30;;;18.20;74.40;;;;;;5084968;28;20136;-77
2022/10/25 11:46:59;;;;;;;11.57;1.92;;;18.30;74.90;;;;;;5085595;28;20020;-77
2022/10/25 11:50:26;;;;;;;2.28;1.42;;;18.60;73.90;;;;;;5084457;28;20040;-75
2022/10/25 11:53:15;;;;;;;3.08;2.00;;;18.60;73.40;;;;;;5025300;28;20036;-75
2022/10/25 11:56:05;;;;;;;3.90;1.88;;;18.50;73.50;;;;;;5041514;28;20037;-76
2022/10/25 11:59:08;;;;;;;1.73;1.52;;;18.90;74.50;;;;;;5084403;28;20048;-77
2022/10/25 12:02:02;;;;;;;4.20;1.60;;;20.00;73.20;;;;;;5089639;28;20035;-77
2022/10/25 12:04:57;;;;;;;2.90;1.40;;;21.40;68.10;;;;;;5089759;28;20030;-75
2022/10/25 12:07:33;;;;;;;2.17;1.38;;;22.30;65.00;;;;;;5100688;28;20028;-75
2022/10/25 12:10:33;;;;;;;2.70;1.58;;;23.60;62.20;;;;;;5089484;28;20254;-75
2022/10/25 12:13:09;;;;;;;1.40;1.17;;;25.30;59.20;;;;;;5087329;28;20093;-75
2022/10/25 12:15:45;;;;;;;2.47;1.65;;;26.60;56.30;;;;;;5084542;28;20056;-75
2022/10/25 12:18:16;;;;;;;2.28;1.60;;;27.50;54.00;;;;;;5086506;28;20032;-75
2022/10/25 12:20:45;;;;;;;2.67;0.95;;;27.50;52.20;;;;;;5095405;27;20479;-75
2022/10/25 12:23:14;;;;;;;1.00;0.90;;;27.00;53.20;;;;;;5093471;28;20024;-76
2022/10/25 12:25:46;;;;;;;1.48;0.90;;;27.10;53.00;;;;;;5089045;28;20031;-77
2022/10/25 12:28:24;;;;;;;2.15;1.33;;;27.90;52.20;;;;;;5096078;28;20465;-78
2022/10/25 12:30:55;;;;;;;1.88;1.23;;;27.80;51.00;;;;;;5084561;28;20031;-75
2022/10/25 12:33:35;;;;;;;1.13;0.77;;;26.80;52.30;;;;;;5088085;28;20479;-76
2022/10/25 12:36:06;;;;;;;2.38;0.98;;;25.30;54.80;;;;;;5088190;28;20024;-75
2022/10/25 12:38:38;;;;;;;2.78;1.23;;;24.00;57.10;;;;;;5105683;28;20119;-77
2022/10/25 12:41:14;;;;;;;1.08;0.95;;;22.90;59.30;;;;;;5084006;28;20028;-77
2022/10/25 12:44:18;;;;;;;2.20;1.10;;;22.10;61.40;;;;;;5081912;28;20119;-77
2022/10/25 12:47:02;;;;;;;1.10;0.90;;;21.50;63.00;;;;;;5085363;28;20031;-75
2022/10/25 12:49:46;;;;;;;3.13;1.58;;;21.90;62.70;;;;;;5090493;28;20110;-77
2022/10/25 12:52:15;;;;;;;1.98;1.00;;;22.10;61.10;;;;;;5092972;28;20116;-77
2022/10/25 12:55:11;;;;;;;1.50;1.15;;;21.80;61.20;;;;;;5094632;28;20024;-76
2022/10/25 12:58:09;;;;;;;1.45;1.00;;;21.30;61.70;;;;;;5098483;28;20020;-77
2022/10/25 13:01:05;;;;;;;1.08;0.98;;;20.70;63.20;;;;;;5111785;28;20051;-77
2022/10/25 13:03:59;;;;;;;2.65;1.20;;;20.40;64.50;;;;;;5107435;28;20420;-77
2022/10/25 13:06:42;;;;;;;1.17;0.80;;;20.40;65.10;;;;;;5111737;28;20477;-69
2022/10/25 13:09:11;;;;;;;1.65;1.30;;;20.40;65.10;;;;;;5102649;27;20051;-69
2022/10/25 13:11:40;;;;;;;0.73;0.73;;;20.30;65.40;;;;;;5097176;28;20016;-69
2022/10/25 13:14:31;;;;;;;1.45;1.05;;;20.10;65.80;;;;;;5111649;28;20489;-69